Time;durP1;ratioP1;P1;durP2;ratioP2;P2;SDS_P1;SDS_P2;PMS_P1;PMS_P2;Temp;Humidity;BMP_temperature;BMP_pressure;BME280_temperature;BME280_humidity;BME280_pressure;Samples;Min_cycle;Max_cycle;Signal;HPM_P1;HPM_P2
2022/08/11 00:00:07;;;;;;;1.15;1.15;;;24.10;58.60;;;;;;5112047;28;20177;-70
2022/08/11 00:02:42;;;;;;;1.33;1.23;;;24.10;58.50;;;;;;5112623;28;20304;-70
2022/08/11 00:05:13;;;;;;;1.10;1.00;;;24.10;58.60;;;;;;5093148;27;20646;-70
2022/08/11 00:07:53;;;;;;;1.17;1.15;;;24.10;58.60;;;;;;5113847;28;20219;-70
2022/08/11 00:10:28;;;;;;;1.17;1.17;;;24.10;58.70;;;;;;5102078;28;20183;-70
2022/08/11 00:13:06;;;;;;;1.30;1.20;;;24.10;58.60;;;;;;5094214;28;20244;-70
2022/08/11 00:15:43;;;;;;;1.13;1.10;;;24.10;58.60;;;;;;5094040;28;20690;-70
2022/08/11 00:18:12;;;;;;;1.40;1.30;;;24.10;58.60;;;;;;5112264;28;20249;-69
2022/08/11 00:20:42;;;;;;;1.38;1.27;;;24.10;58.60;;;;;;5093544;28;20270;-70
2022/08/11 00:23:16;;;;;;;1.35;1.25;;;24.10;58.60;;;;;;5110778;28;20229;-70
2022/08/11 00:25:50;;;;;;;1.65;1.55;;;24.10;58.60;;;;;;5112326;28;20191;-70
2022/08/11 00:28:33;;;;;;;1.30;1.23;;;24.10;58.60;;;;;;5111031;28;20212;-70
2022/08/11 00:31:09;;;;;;;1.08;1.08;;;24.10;58.40;;;;;;5110592;28;20282;-70
2022/08/11 00:33:46;;;;;;;1.25;1.25;;;24.10;58.60;;;;;;5112186;28;20183;-70
2022/08/11 00:36:16;;;;;;;1.40;1.30;;;24.10;58.60;;;;;;5111609;28;20187;-70
2022/08/11 00:38:48;;;;;;;1.30;1.20;;;24.10;58.60;;;;;;5112033;28;20208;-70
2022/08/11 00:41:34;;;;;;;1.60;1.50;;;24.10;58.70;;;;;;5093232;28;20179;-70
2022/08/11 00:44:41;;;;;;;1.25;1.15;;;24.10;58.60;;;;;;5093842;28;20188;-70
2022/08/11 00:47:34;;;;;;;1.25;1.15;;;24.10;58.60;;;;;;5110670;28;20233;-70
2022/08/11 00:50:52;;;;;;;1.13;1.08;;;24.10;58.70;;;;;;5093400;28;20180;-70
2022/08/11 00:53:37;;;;;;;1.23;1.20;;;24.10;58.60;;;;;;5064434;28;20263;-71
2022/08/11 00:56:33;;;;;;;1.13;1.13;;;24.10;58.60;;;;;;5093899;28;20643;-70
2022/08/11 00:59:29;;;;;;;1.20;1.10;;;24.10;58.70;;;;;;5095191;28;20682;-70
2022/08/11 01:01:55;;;;;;;1.13;1.13;;;24.10;58.70;;;;;;5114607;28;20188;-70
2022/08/11 01:04:54;;;;;;;1.05;1.05;;;24.10;58.80;;;;;;5114734;28;20188;-70
2022/08/11 01:08:17;;;;;;;1.30;1.20;;;24.10;58.70;;;;;;5097352;28;20247;-70
2022/08/11 01:11:23;;;;;;;1.10;1.10;;;24.10;58.70;;;;;;5115172;28;20266;-70
2022/08/11 01:14:59;;;;;;;1.40;1.30;;;24.10;58.60;;;;;;5032641;28;20195;-71
2022/08/11 01:17:47;;;;;;;1.50;1.40;;;24.10;58.70;;;;;;5052922;28;20223;-70
2022/08/11 01:20:33;;;;;;;1.50;1.40;;;24.10;58.70;;;;;;5097020;28;20183;-70
2022/08/11 01:24:12;;;;;;;1.67;1.30;;;24.00;58.60;;;;;;5096874;28;20234;-70
2022/08/11 01:27:28;;;;;;;1.20;1.10;;;24.00;58.60;;;;;;5019429;28;20191;-70
2022/08/11 01:31:07;;;;;;;1.27;1.17;;;24.00;58.60;;;;;;5075655;28;20192;-70
2022/08/11 01:34:15;;;;;;;1.45;1.35;;;24.00;58.60;;;;;;4996263;28;20200;-70
2022/08/11 01:37:05;;;;;;;1.40;1.30;;;24.00;58.70;;;;;;4996030;28;20196;-70
2022/08/11 01:39:55;;;;;;;1.15;1.15;;;24.00;58.70;;;;;;5059353;28;20212;-70
2022/08/11 01:46:12;;;;;;;1.52;1.38;;;24.00;58.60;;;;;;5093371;28;20317;-70
2022/08/11 01:48:41;;;;;;;1.40;1.30;;;24.00;58.70;;;;;;5076408;28;20246;-70
2022/08/11 01:51:30;;;;;;;1.30;1.20;;;24.00;58.80;;;;;;5092716;28;20185;-70
2022/08/11 01:54:20;;;;;;;1.40;1.30;;;24.00;58.70;;;;;;5093277;28;20189;-70
2022/08/11 01:57:49;;;;;;;1.55;1.45;;;24.00;58.60;;;;;;5093164;28;20191;-70
2022/08/11 02:00:29;;;;;;;1.38;1.27;;;24.00;58.70;;;;;;5079856;28;20196;-70
2022/08/11 02:03:13;;;;;;;1.45;1.35;;;24.00;58.70;;;;;;5093126;28;20181;-70
2022/08/11 02:06:53;;;;;;;1.58;1.48;;;24.00;58.70;;;;;;5076256;28;20196;-69
2022/08/11 02:09:07;;;;;;;1.33;1.23;;;24.00;58.70;;;;;;5075741;28;20216;-70
2022/08/11 02:11:37;;;;;;;1.40;1.30;;;24.00;58.70;;;;;;5092408;28;20201;-70
2022/08/11 02:14:30;;;;;;;1.40;1.30;;;24.00;58.80;;;;;;5093043;28;20296;-70
2022/08/11 02:17:32;;;;;;;1.70;1.60;;;24.00;58.80;;;;;;5075951;28;20189;-70
2022/08/11 02:23:40;;;;;;;1.40;1.30;;;24.00;58.80;;;;;;5092504;28;20185;-70
2022/08/11 02:26:19;;;;;;;1.52;1.42;;;24.00;58.80;;;;;;5075918;28;20177;-70
2022/08/11 02:29:10;;;;;;;1.25;1.25;;;24.00;58.80;;;;;;5075716;28;20208;-70
2022/08/11 02:34:57;;;;;;;1.20;1.20;;;24.00;58.80;;;;;;5095583;28;20222;-70
2022/08/11 02:38:05;;;;;;;1.70;1.60;;;24.00;58.80;;;;;;5096053;28;20206;-70
2022/08/11 02:40:55;;;;;;;1.40;1.30;;;24.00;58.80;;;;;;5113306;28;20183;-69
2022/08/11 02:43:38;;;;;;;1.67;1.58;;;24.00;58.80;;;;;;5078421;28;20272;-71
2022/08/11 02:46:16;;;;;;;1.80;1.70;;;23.90;58.60;;;;;;5112938;28;20192;-70
2022/08/11 02:52:05;;;;;;;1.58;1.48;;;24.00;58.80;;;;;;5113746;28;20206;-71
2022/08/11 02:54:37;;;;;;;1.42;1.33;;;23.90;58.80;;;;;;5095498;28;20208;-70
2022/08/11 02:57:56;;;;;;;1.60;1.50;;;24.00;58.80;;;;;;5113534;28;20192;-70
2022/08/11 03:00:25;;;;;;;1.48;1.38;;;23.90;59.30;;;;;;4994212;28;20234;-70
2022/08/11 03:03:12;;;;;;;1.65;1.55;;;24.00;58.90;;;;;;5010980;28;20183;-69
2022/08/11 03:06:22;;;;;;;1.60;1.40;;;23.90;58.80;;;;;;5086269;28;20192;-70
2022/08/11 03:09:09;;;;;;;1.92;1.65;;;23.90;58.70;;;;;;5095093;28;20584;-70
2022/08/11 03:17:49;;;;;;;1.30;1.30;;;24.00;58.90;;;;;;5113272;28;20207;-70
2022/08/11 03:20:29;;;;;;;1.58;1.48;;;23.90;58.80;;;;;;5077549;28;20295;-70
2022/08/11 03:23:29;;;;;;;1.45;1.35;;;23.90;58.70;;;;;;5112368;28;20187;-70
2022/08/11 03:26:40;;;;;;;1.73;1.63;;;23.90;58.80;;;;;;5094947;28;20202;-70
2022/08/11 03:29:20;;;;;;;1.40;1.30;;;23.90;58.80;;;;;;5094875;28;20790;-70
2022/08/11 03:31:59;;;;;;;1.60;1.50;;;23.90;58.80;;;;;;5094689;28;20187;-70
2022/08/11 03:34:27;;;;;;;1.30;1.30;;;23.90;58.80;;;;;;5113097;28;20343;-70
2022/08/11 03:44:01;;;;;;;1.48;1.40;;;23.90;58.80;;;;;;5094594;28;20221;-70
2022/08/11 03:47:09;;;;;;;2.05;1.55;;;23.90;58.80;;;;;;5112666;28;20208;-70
2022/08/11 03:50:05;;;;;;;1.35;1.25;;;23.90;58.80;;;;;;5089539;28;20202;-70
2022/08/11 03:52:59;;;;;;;1.50;1.40;;;23.90;58.80;;;;;;5094520;28;20305;-70
2022/08/11 03:55:44;;;;;;;1.60;1.50;;;23.90;58.80;;;;;;5112280;28;20214;-70
2022/08/11 03:58:34;;;;;;;1.73;1.63;;;23.90;58.80;;;;;;5094627;28;20192;-70
2022/08/11 04:01:34;;;;;;;1.70;1.60;;;23.90;58.80;;;;;;5076803;28;20183;-70
2022/08/11 04:04:09;;;;;;;1.60;1.50;;;23.90;58.90;;;;;;5112519;28;20213;-70
2022/08/11 04:07:16;;;;;;;1.48;1.38;;;23.90;58.90;;;;;;5112651;28;20190;-70
2022/08/11 04:10:07;;;;;;;1.42;1.33;;;23.90;58.80;;;;;;5093856;28;20262;-70
2022/08/11 04:13:28;;;;;;;1.38;1.27;;;23.90;58.80;;;;;;5094372;28;20195;-70
2022/08/11 04:16:41;;;;;;;1.88;1.70;;;23.80;58.80;;;;;;5094280;28;20230;-70
2022/08/11 04:20:00;;;;;;;1.70;1.60;;;23.90;58.80;;;;;;5094557;28;20226;-70
2022/08/11 04:23:02;;;;;;;1.90;1.80;;;23.80;58.80;;;;;;5093766;28;20184;-70
2022/08/11 04:26:10;;;;;;;1.70;1.60;;;23.80;58.80;;;;;;5112235;28;20179;-70
2022/08/11 04:29:23;;;;;;;1.55;1.45;;;23.80;58.80;;;;;;5094048;28;20212;-70
2022/08/11 04:32:41;;;;;;;1.80;1.70;;;23.90;58.80;;;;;;5076981;28;20213;-70
2022/08/11 04:36:01;;;;;;;4.00;1.40;;;23.90;58.90;;;;;;5098138;28;20231;-70
2022/08/11 04:38:48;;;;;;;1.58;1.48;;;23.80;58.80;;;;;;5053334;28;20252;-70
2022/08/11 04:45:03;;;;;;;1.92;1.40;;;23.80;58.80;;;;;;5077927;28;20287;-70
2022/08/11 05:01:44;;;;;;;1.40;1.30;;;23.80;58.90;;;;;;5114209;28;20188;-72
2022/08/11 05:08:13;;;;;;;1.83;1.73;;;23.80;58.90;;;;;;5115854;28;20257;-70
2022/08/11 05:11:21;;;;;;;1.63;1.52;;;23.80;58.90;;;;;;5097140;28;20267;-70
2022/08/11 05:37:11;;;;;;;1.75;1.65;;;23.80;59.10;;;;;;5114926;28;20211;-71
2022/08/11 05:57:01;;;;;;;1.98;1.88;;;23.80;71.50;;;;;;5114857;28;20608;-71
2022/08/11 05:59:29;;;;;;;1.85;1.75;;;23.80;58.50;;;;;;5096635;28;20192;-71
2022/08/11 06:02:06;;;;;;;1.60;1.50;;;23.80;59.00;;;;;;5096233;28;20223;-71
2022/08/11 06:04:33;;;;;;;1.80;1.70;;;23.80;59.00;;;;;;5114707;28;20180;-71
2022/08/11 06:07:07;;;;;;;1.75;1.65;;;23.80;59.00;;;;;;5114623;28;20228;-71
2022/08/11 06:09:49;;;;;;;1.88;1.77;;;23.80;59.00;;;;;;5113651;28;20183;-70
2022/08/11 06:12:24;;;;;;;1.90;1.80;;;23.80;59.00;;;;;;5096417;28;20203;-71
2022/08/11 06:14:56;;;;;;;1.90;1.80;;;23.80;59.10;;;;;;5114481;28;20214;-71
2022/08/11 06:17:26;;;;;;;1.70;1.60;;;23.80;59.10;;;;;;5114526;28;20199;-71
2022/08/11 06:20:11;;;;;;;1.92;1.83;;;23.80;59.10;;;;;;5113695;28;20180;-71
2022/08/11 06:23:01;;;;;;;1.80;1.70;;;23.80;59.00;;;;;;5096128;28;20191;-71
2022/08/11 06:25:34;;;;;;;1.95;1.85;;;23.80;59.10;;;;;;5096067;28;20233;-71
2022/08/11 06:28:05;;;;;;;2.10;2.00;;;23.80;59.00;;;;;;5095920;28;20562;-71
2022/08/11 06:30:42;;;;;;;2.45;1.92;;;23.80;59.10;;;;;;5112542;28;20180;-71
2022/08/11 06:33:14;;;;;;;2.17;2.00;;;23.80;59.10;;;;;;5114193;28;20233;-71
2022/08/11 06:36:44;;;;;;;1.85;1.70;;;23.80;59.00;;;;;;5079055;28;20262;-71
2022/08/11 06:39:28;;;;;;;1.73;1.63;;;23.80;59.10;;;;;;5048358;28;20195;-71
2022/08/11 06:42:11;;;;;;;2.05;1.70;;;23.80;59.00;;;;;;5112148;28;20709;-71
2022/08/11 06:45:07;;;;;;;1.98;1.88;;;23.80;59.10;;;;;;5112686;28;20177;-71
2022/08/11 06:47:34;;;;;;;1.90;1.80;;;23.80;59.10;;;;;;5095685;28;20196;-70
2022/08/11 06:52:47;;;;;;;1.80;1.70;;;23.80;59.10;;;;;;5112439;28;20267;-71
2022/08/11 07:00:26;;;;;;;1.90;1.80;;;23.80;59.10;;;;;;5113625;28;20203;-71
2022/08/11 07:01:28;;;;;;;1.85;1.75;;;23.80;59.10;;;;;;5112329;28;20194;-71
2022/08/11 07:04:06;;;;;;;1.83;1.73;;;23.80;59.10;;;;;;5112233;28;20192;-70
2022/08/11 07:15:55;;;;;;;1.83;1.73;;;23.80;59.10;;;;;;5112442;28;20277;-73
2022/08/11 07:30:01;;;;;;;1.70;1.60;;;23.80;59.10;;;;;;5111135;28;20187;-71
2022/08/11 07:32:35;;;;;;;1.60;1.50;;;23.80;59.10;;;;;;5112009;28;20176;-71
2022/08/11 07:35:14;;;;;;;1.90;1.80;;;23.80;59.10;;;;;;5112999;28;20207;-71
2022/08/11 07:37:55;;;;;;;2.00;1.90;;;23.80;59.10;;;;;;5111480;28;20264;-71
2022/08/11 07:40:24;;;;;;;1.77;1.67;;;23.80;59.10;;;;;;5077051;28;20184;-71
2022/08/11 07:42:53;;;;;;;2.10;1.95;;;23.80;59.00;;;;;;5111909;28;20184;-71
2022/08/11 07:53:37;;;;;;;1.77;1.67;;;23.80;59.10;;;;;;5112448;28;20300;-71
2022/08/11 07:56:05;;;;;;;1.88;1.77;;;23.80;59.00;;;;;;5111302;28;20218;-71
2022/08/11 08:18:07;;;;;;;2.25;2.00;;;24.00;58.80;;;;;;5111271;28;20253;-71
2022/08/11 08:20:45;;;;;;;1.98;1.77;;;24.00;58.70;;;;;;5110620;28;20271;-71
2022/08/11 08:23:11;;;;;;;1.77;1.67;;;24.10;58.90;;;;;;5111150;28;20270;-71
2022/08/11 08:25:42;;;;;;;2.17;1.80;;;24.10;58.70;;;;;;5111278;28;20183;-71
2022/08/11 08:28:15;;;;;;;1.88;1.65;;;24.10;58.40;;;;;;5110937;28;20232;-71
2022/08/11 08:30:54;;;;;;;1.83;1.73;;;24.10;58.40;;;;;;5110413;28;20219;-71
2022/08/11 08:33:30;;;;;;;2.20;2.00;;;24.10;58.40;;;;;;5093980;28;20191;-72
2022/08/11 08:36:10;;;;;;;4.50;1.70;;;24.10;58.40;;;;;;5110897;28;20253;-71
2022/08/11 08:39:02;;;;;;;1.90;1.80;;;24.10;58.50;;;;;;5112155;28;20196;-71
2022/08/11 08:41:35;;;;;;;2.08;1.80;;;24.10;58.70;;;;;;5107663;28;20246;-71
2022/08/11 08:44:07;;;;;;;1.83;1.73;;;24.10;58.90;;;;;;5128134;28;20205;-70
2022/08/11 08:46:42;;;;;;;1.88;1.77;;;24.10;58.60;;;;;;5112095;28;20172;-71
2022/08/11 08:49:14;;;;;;;1.75;1.65;;;24.10;58.80;;;;;;5112054;28;20594;-71
2022/08/11 08:51:45;;;;;;;1.88;1.77;;;24.20;58.60;;;;;;5106437;28;20176;-71
2022/08/11 08:54:20;;;;;;;1.80;1.70;;;24.20;58.70;;;;;;5111744;28;20259;-70
2022/08/11 08:56:51;;;;;;;1.70;1.60;;;24.20;58.40;;;;;;5093426;28;20659;-70
2022/08/11 08:59:24;;;;;;;2.53;1.88;;;24.20;58.60;;;;;;5093865;28;20176;-71
2022/08/11 09:02:01;;;;;;;1.65;1.55;;;24.20;58.60;;;;;;5093266;28;20652;-71
2022/08/11 09:04:28;;;;;;;2.00;1.90;;;24.20;58.60;;;;;;5093176;28;20241;-71
2022/08/11 09:07:02;;;;;;;2.00;1.90;;;24.20;58.60;;;;;;5111669;28;20210;-72
2022/08/11 09:09:28;;;;;;;1.67;1.58;;;24.20;58.60;;;;;;5076846;28;20678;-71
2022/08/11 09:11:55;;;;;;;1.60;1.50;;;24.20;58.50;;;;;;5093024;28;20280;-71
2022/08/11 09:14:59;;;;;;;1.60;1.50;;;24.20;58.80;;;;;;5093557;28;20249;-71
2022/08/11 09:17:13;;;;;;;1.58;1.48;;;24.20;58.70;;;;;;5093284;28;20204;-71
2022/08/11 09:19:39;;;;;;;1.88;1.77;;;24.20;58.70;;;;;;5077821;28;20180;-70
2022/08/11 09:27:38;;;;;;;1.67;1.58;;;24.20;58.80;;;;;;5115364;28;20198;-71
2022/08/11 09:30:06;;;;;;;1.75;1.65;;;24.20;58.60;;;;;;5096764;28;20219;-71
2022/08/11 09:32:33;;;;;;;1.85;1.75;;;24.20;58.70;;;;;;5115392;28;20176;-71
2022/08/11 09:35:03;;;;;;;1.60;1.50;;;24.20;58.70;;;;;;5096953;28;20208;-71
2022/08/11 09:40:28;;;;;;;2.00;1.83;;;24.30;58.70;;;;;;5062060;28;20198;-71
2022/08/11 09:45:50;;;;;;;1.77;1.67;;;24.30;58.80;;;;;;5115162;28;20575;-71
2022/08/11 09:48:22;;;;;;;2.05;1.70;;;24.20;58.70;;;;;;5114975;28;20233;-71
2022/08/11 09:50:53;;;;;;;2.20;1.83;;;24.30;58.70;;;;;;5096405;28;20220;-71
2022/08/11 09:53:21;;;;;;;1.30;1.25;;;24.20;58.60;;;;;;5096471;28;20191;-71
2022/08/11 09:55:49;;;;;;;1.70;1.58;;;24.30;58.70;;;;;;5113635;28;20216;-71
2022/08/11 09:58:16;;;;;;;1.85;1.75;;;24.30;58.70;;;;;;5096611;28;20249;-71
2022/08/11 10:00:48;;;;;;;1.85;1.75;;;24.30;58.70;;;;;;5079497;28;20206;-71
2022/08/11 10:03:26;;;;;;;1.60;1.50;;;24.20;58.60;;;;;;5096591;28;20180;-71
2022/08/11 10:08:52;;;;;;;1.80;1.70;;;24.20;58.60;;;;;;5114593;28;20212;-72
2022/08/11 10:11:23;;;;;;;1.73;1.63;;;24.30;58.50;;;;;;5114099;28;20184;-71
2022/08/11 10:16:41;;;;;;;1.75;1.65;;;24.30;58.70;;;;;;5096254;28;20214;-71
2022/08/11 10:19:09;;;;;;;1.95;1.85;;;24.30;58.60;;;;;;5096192;28;20271;-71
2022/08/11 10:26:48;;;;;;;1.80;1.63;;;24.30;58.50;;;;;;5113876;28;20180;-71
2022/08/11 10:27:18;;;;;;;3.45;1.65;;;24.30;58.70;;;;;;5114067;28;20215;-71
2022/08/11 10:35:17;;;;;;;1.90;1.80;;;24.30;58.60;;;;;;5095927;28;20211;-71
2022/08/11 10:37:46;;;;;;;1.65;1.55;;;24.30;58.40;;;;;;5079050;28;20200;-71
2022/08/11 10:40:21;;;;;;;2.55;1.48;;;24.30;58.30;;;;;;5095232;28;20651;-71
2022/08/11 10:43:11;;;;;;;1.58;1.48;;;24.30;58.30;;;;;;5095990;28;20191;-71
2022/08/11 10:48:34;;;;;;;2.00;1.90;;;24.30;58.40;;;;;;5113819;28;20257;-71
2022/08/11 10:51:12;;;;;;;1.75;1.65;;;24.30;58.60;;;;;;5113307;28;20188;-71
2022/08/11 10:59:26;;;;;;;1.55;1.45;;;24.30;58.30;;;;;;5112444;28;20237;-71
2022/08/11 11:01:53;;;;;;;2.08;1.88;;;24.30;58.50;;;;;;5094974;28;20180;-70
2022/08/11 11:04:46;;;;;;;2.38;1.90;;;24.30;58.50;;;;;;5095490;28;20184;-71
2022/08/11 11:07:23;;;;;;;1.50;1.40;;;24.30;58.70;;;;;;5094787;28;20204;-71
2022/08/11 11:09:56;;;;;;;2.65;1.60;;;24.30;58.60;;;;;;5078343;28;20188;-71
2022/08/11 11:18:27;;;;;;;1.50;1.40;;;24.30;58.30;;;;;;5113294;28;20245;-71
2022/08/11 11:21:06;;;;;;;1.80;1.70;;;24.30;58.50;;;;;;5094495;28;20176;-71
2022/08/11 11:23:46;;;;;;;1.90;1.80;;;24.30;58.40;;;;;;5095298;28;20654;-72
2022/08/11 11:26:33;;;;;;;1.75;1.65;;;24.30;58.60;;;;;;5079512;28;20180;-71
2022/08/11 11:29:41;;;;;;;1.88;1.77;;;24.30;58.60;;;;;;5113102;28;20253;-70
2022/08/11 11:32:34;;;;;;;2.03;1.80;;;24.30;58.30;;;;;;5094369;28;20195;-71
2022/08/11 11:35:31;;;;;;;2.00;1.67;;;24.30;58.30;;;;;;5094847;28;20335;-71
2022/08/11 11:37:58;;;;;;;1.80;1.70;;;24.30;58.60;;;;;;5094459;28;20324;-71
2022/08/11 11:40:24;;;;;;;1.73;1.63;;;24.30;58.60;;;;;;5094274;28;20209;-71
2022/08/11 11:42:55;;;;;;;1.80;1.70;;;24.30;58.40;;;;;;5112193;28;20165;-72
2022/08/11 11:45:24;;;;;;;1.60;1.50;;;24.30;58.80;;;;;;5094809;28;20192;-71
2022/08/11 11:47:53;;;;;;;1.65;1.55;;;24.30;58.80;;;;;;5094487;28;20196;-71
2022/08/11 11:50:34;;;;;;;1.90;1.80;;;24.30;58.70;;;;;;5093790;28;20735;-71
2022/08/11 11:53:07;;;;;;;1.65;1.55;;;24.30;58.40;;;;;;5111276;28;20192;-71
2022/08/11 11:55:35;;;;;;;1.60;1.50;;;24.30;58.30;;;;;;5112703;28;20667;-71
2022/08/11 12:03:38;;;;;;;1.80;1.70;;;24.40;58.50;;;;;;5112564;28;20557;-71
2022/08/11 12:06:06;;;;;;;2.28;1.73;;;24.40;58.60;;;;;;5094338;28;20241;-71
2022/08/11 12:08:35;;;;;;;1.70;1.60;;;24.40;58.70;;;;;;5094335;28;20251;-70
2022/08/11 12:14:00;;;;;;;1.70;1.60;;;24.30;58.90;;;;;;5112440;28;20238;-71
2022/08/11 12:16:28;;;;;;;1.70;1.60;;;24.30;58.80;;;;;;5094314;28;20208;-71
2022/08/11 12:18:58;;;;;;;1.63;1.52;;;24.40;58.60;;;;;;5094329;28;20192;-71
2022/08/11 12:21:27;;;;;;;1.67;1.58;;;24.30;58.40;;;;;;5110814;28;20187;-71
2022/08/11 12:29:18;;;;;;;2.88;1.73;;;24.40;58.50;;;;;;5094038;28;20176;-72
2022/08/11 12:31:45;;;;;;;1.85;1.75;;;24.40;58.50;;;;;;5093584;28;20245;-70
2022/08/11 12:34:14;;;;;;;1.67;1.58;;;24.40;58.40;;;;;;5110976;28;20175;-71
2022/08/11 12:36:54;;;;;;;1.73;1.63;;;24.40;58.40;;;;;;5077146;28;20183;-71
2022/08/11 12:45:30;;;;;;;1.83;1.73;;;24.40;58.50;;;;;;5091671;28;20237;-71
2022/08/11 12:53:59;;;;;;;2.00;1.75;;;24.40;58.50;;;;;;5090771;28;20199;-71
2022/08/11 13:05:04;;;;;;;1.88;1.77;;;24.40;58.60;;;;;;5103604;28;20266;-71
2022/08/11 13:07:34;;;;;;;1.80;1.70;;;24.40;58.30;;;;;;5115793;28;20245;-71
2022/08/11 13:10:07;;;;;;;1.90;1.80;;;24.40;58.40;;;;;;5115834;28;20172;-70
2022/08/11 13:12:49;;;;;;;1.85;1.75;;;24.40;58.40;;;;;;5097036;28;20184;-71
2022/08/11 13:15:22;;;;;;;2.00;1.75;;;24.40;58.10;;;;;;5097785;28;20217;-71
2022/08/11 13:17:51;;;;;;;1.70;1.60;;;24.40;58.40;;;;;;5115707;28;20188;-71
2022/08/11 13:20:21;;;;;;;1.85;1.75;;;24.40;58.50;;;;;;5097334;28;20168;-71
2022/08/11 13:22:54;;;;;;;1.73;1.63;;;24.40;58.40;;;;;;5097420;28;20215;-71
2022/08/11 13:25:24;;;;;;;1.60;1.50;;;24.40;58.40;;;;;;5115397;28;20180;-70
2022/08/11 13:27:54;;;;;;;2.75;2.28;;;24.40;58.40;;;;;;5115042;28;20696;-71
2022/08/11 13:33:10;;;;;;;1.80;1.70;;;24.40;58.30;;;;;;5097221;28;20279;-71
2022/08/11 13:35:37;;;;;;;2.03;1.92;;;24.40;58.20;;;;;;5113828;28;20204;-71
2022/08/11 13:38:05;;;;;;;2.92;1.77;;;24.40;58.00;;;;;;5080360;28;20211;-71
2022/08/11 13:40:32;;;;;;;1.77;1.67;;;24.40;58.10;;;;;;5079664;28;20186;-71
2022/08/11 13:42:58;;;;;;;1.70;1.60;;;24.40;58.00;;;;;;5097137;28;20238;-71
2022/08/11 13:45:26;;;;;;;1.90;1.80;;;24.40;58.00;;;;;;5114009;28;20176;-71
2022/08/11 13:47:57;;;;;;;2.00;1.80;;;24.40;58.10;;;;;;5080090;28;20219;-71
2022/08/11 13:51:29;;;;;;;2.00;1.90;;;24.40;58.20;;;;;;5096452;28;20172;-71
2022/08/11 13:53:16;;;;;;;1.80;1.70;;;24.40;58.40;;;;;;5114660;28;20543;-71
2022/08/11 13:55:44;;;;;;;1.88;1.77;;;24.40;58.20;;;;;;5096442;28;20307;-71
2022/08/11 13:58:12;;;;;;;1.98;1.77;;;24.40;58.20;;;;;;5079907;28;20196;-71
2022/08/11 14:00:40;;;;;;;2.05;1.75;;;24.40;58.60;;;;;;5079328;28;20226;-71
2022/08/11 14:03:11;;;;;;;1.70;1.60;;;24.40;58.80;;;;;;5096597;28;20184;-71
2022/08/11 14:05:45;;;;;;;1.92;1.50;;;24.40;58.40;;;;;;5112996;28;20204;-71
2022/08/11 14:08:20;;;;;;;1.90;1.80;;;24.40;58.20;;;;;;5096335;28;20215;-71
2022/08/11 14:13:36;;;;;;;1.83;1.73;;;24.40;58.00;;;;;;5095919;28;20648;-71
2022/08/11 14:13:40;;;;;;;1.80;1.70;;;24.40;58.10;;;;;;5096616;28;20230;-71
2022/08/11 14:16:17;;;;;;;1.98;1.70;;;24.40;58.20;;;;;;5096428;28;20219;-71
2022/08/11 14:18:47;;;;;;;1.90;1.80;;;24.40;58.30;;;;;;5096435;28;20290;-71
2022/08/11 14:24:03;;;;;;;2.28;2.08;;;24.40;58.50;;;;;;5096256;28;20188;-71
2022/08/11 14:26:37;;;;;;;2.17;1.70;;;24.40;58.20;;;;;;5114446;28;20211;-71
2022/08/11 14:29:14;;;;;;;1.90;1.80;;;24.40;58.10;;;;;;5096239;28;20632;-71
2022/08/11 14:31:52;;;;;;;1.92;1.83;;;24.40;58.50;;;;;;5113710;28;20245;-71
2022/08/11 14:34:22;;;;;;;2.40;2.30;;;24.40;58.20;;;;;;5114451;28;20227;-71
2022/08/11 14:36:53;;;;;;;1.95;1.80;;;24.40;58.10;;;;;;5114182;28;20600;-71
2022/08/11 14:39:25;;;;;;;1.60;1.50;;;24.40;58.30;;;;;;5079198;28;20184;-71
2022/08/11 14:47:39;;;;;;;1.67;1.58;;;24.40;58.00;;;;;;5095555;28;20285;-71
2022/08/11 14:50:12;;;;;;;1.70;1.60;;;24.40;58.10;;;;;;5078786;28;20206;-71
2022/08/11 14:53:08;;;;;;;1.80;1.70;;;24.40;58.00;;;;;;5094793;28;20271;-71
2022/08/11 14:58:29;;;;;;;2.45;1.80;;;24.40;58.00;;;;;;5095676;28;20295;-71
2022/08/11 15:00:59;;;;;;;1.90;1.80;;;24.50;58.00;;;;;;5094335;28;20176;-71
2022/08/11 15:03:32;;;;;;;2.25;2.03;;;24.50;58.20;;;;;;5095576;28;20216;-71
2022/08/11 15:06:03;;;;;;;3.47;2.00;;;24.40;58.10;;;;;;5078834;28;20192;-71
2022/08/11 15:08:55;;;;;;;2.65;1.75;;;24.40;57.80;;;;;;5078266;28;20243;-71
2022/08/11 15:17:06;;;;;;;1.83;1.70;;;24.40;58.00;;;;;;5095361;28;20198;-71
2022/08/11 15:17:09;;;;;;;1.88;1.77;;;24.40;58.00;;;;;;5113271;28;20191;-70
2022/08/11 15:24:18;;;;;;;2.72;1.73;;;24.40;58.00;;;;;;5095263;28;20177;-71
2022/08/11 15:25:11;;;;;;;1.90;1.80;;;24.50;58.10;;;;;;5113060;28;20752;-71
2022/08/11 15:39:03;;;;;;;1.75;1.65;;;24.50;58.10;;;;;;5112583;28;20208;-71
2022/08/11 15:45:47;;;;;;;1.90;1.80;;;24.40;57.90;;;;;;5070853;28;20196;-71
2022/08/11 15:47:31;;;;;;;1.80;1.70;;;24.40;57.80;;;;;;5094441;28;20212;-71
2022/08/11 15:50:01;;;;;;;1.77;1.67;;;24.50;58.10;;;;;;5094903;28;20176;-71
2022/08/11 15:52:33;;;;;;;1.92;1.80;;;24.40;58.00;;;;;;5111710;28;20171;-71
2022/08/11 15:55:01;;;;;;;1.52;1.42;;;24.40;58.00;;;;;;5112610;28;20204;-71
2022/08/11 16:05:49;;;;;;;1.67;1.58;;;24.50;57.80;;;;;;5112475;28;20267;-71
2022/08/11 16:08:23;;;;;;;1.55;1.45;;;24.50;57.80;;;;;;5112636;28;20207;-73
2022/08/11 16:10:54;;;;;;;1.85;1.75;;;24.50;58.10;;;;;;5093786;28;20184;-71
2022/08/11 16:18:45;;;;;;;1.90;1.80;;;24.50;57.70;;;;;;5094201;28;20241;-71
2022/08/11 16:21:24;;;;;;;1.85;1.70;;;24.50;57.80;;;;;;5111886;28;20188;-70
2022/08/11 16:23:54;;;;;;;1.98;1.85;;;24.50;57.70;;;;;;5094327;28;20168;-71
2022/08/11 16:26:22;;;;;;;1.75;1.65;;;24.50;57.70;;;;;;5093964;28;20281;-71
2022/08/11 16:28:56;;;;;;;1.65;1.55;;;24.40;58.10;;;;;;5093542;28;20207;-71
2022/08/11 16:31:24;;;;;;;2.67;1.52;;;24.50;59.10;;;;;;5093654;28;20187;-71
2022/08/11 16:33:52;;;;;;;1.75;1.65;;;24.50;69.50;;;;;;5111080;28;20219;-71
2022/08/11 16:39:07;;;;;;;1.70;1.60;;;24.40;57.30;;;;;;5112104;28;20629;-72
2022/08/11 16:47:14;;;;;;;2.00;1.77;;;24.50;57.50;;;;;;5111987;28;20278;-71
2022/08/11 16:49:53;;;;;;;1.67;1.58;;;24.50;57.60;;;;;;5111979;28;20188;-71
2022/08/11 16:52:22;;;;;;;1.60;1.50;;;24.50;57.60;;;;;;5092934;28;20263;-71
2022/08/11 16:54:48;;;;;;;1.70;1.60;;;24.50;57.80;;;;;;5093952;28;20211;-71
2022/08/11 17:00:14;;;;;;;1.60;1.50;;;24.50;57.70;;;;;;5093099;28;20180;-71
2022/08/11 17:14:47;;;;;;;1.60;1.50;;;24.50;57.60;;;;;;5111831;28;20224;-71
2022/08/11 17:17:19;;;;;;;1.70;1.60;;;24.50;57.70;;;;;;5111156;28;20227;-71
2022/08/11 17:19:51;;;;;;;1.48;1.38;;;24.50;57.30;;;;;;5077000;28;20275;-71
2022/08/11 17:25:07;;;;;;;1.98;1.52;;;24.50;57.30;;;;;;5111757;28;20176;-71
2022/08/11 17:27:34;;;;;;;1.60;1.50;;;24.50;57.40;;;;;;5111783;28;20219;-71
2022/08/11 17:30:06;;;;;;;1.50;1.40;;;24.50;57.50;;;;;;5093469;28;20180;-71
2022/08/11 17:35:40;;;;;;;1.70;1.60;;;24.50;57.60;;;;;;5111371;28;20295;-71
2022/08/11 17:38:18;;;;;;;1.73;1.63;;;24.50;57.60;;;;;;5093437;28;20289;-71
2022/08/11 17:49:14;;;;;;;1.70;1.52;;;24.50;57.30;;;;;;5115201;28;20244;-71
2022/08/11 18:00:05;;;;;;;1.67;1.58;;;24.50;57.00;;;;;;5115003;28;20644;-71
2022/08/11 18:05:32;;;;;;;2.40;1.70;;;24.50;57.20;;;;;;5096714;28;20237;-70
